CDT,Max TemperatureF,Mean TemperatureF,Min TemperatureF,Max Dew PointF,MeanDew PointF,Min DewpointF,Max Humidity, Mean Humidity, Min Humidity, Max Sea Level PressureIn, Mean Sea Level PressureIn, Min Sea Level PressureIn, Max VisibilityMiles, Mean VisibilityMiles, Min VisibilityMiles, Max Wind SpeedMPH, Mean Wind SpeedMPH, Max Gust SpeedMPH,PrecipitationIn, CloudCover, Events, WindDirDegrees
2013-4-1,88,69,49,58,49,42,77,49,21,30.03,29.93,29.80,10,10,10,20,9,29,0.00,0,,125
2013-4-2,74,60,45,61,52,43,93,75,57,29.99,29.92,29.82,10,9,2,33,13,40,0.55,7,Rain-Thunderstorm,83
2013-4-3,50,46,42,42,40,38,92,82,71,30.21,30.10,29.96,10,10,4,20,11,23,T,8,Rain,351
2013-4-4,73,58,42,45,38,34,82,54,25,30.27,30.17,30.07,10,10,10,15,9,23,0.00,4,,354
2013-4-5,81,59,37,46,40,36,92,57,21,30.21,30.09,29.95,10,10,7,20,8,28,0.00,0,,157
2013-4-6,89,73,57,55,45,41,67,43,19,29.91,29.83,29.71,10,10,10,29,15,37,0.00,0,,195
2013-4-7,93,76,59,59,52,36,90,52,14,29.80,29.72,29.60,10,10,10,21,12,25,0.00,0,,193
2013-4-8,90,78,65,62,57,44,87,54,21,29.73,29.60,29.47,10,10,10,25,15,35,0.00,3,,185
2013-4-9,96,74,51,63,50,32,81,46,11,29.73,29.54,29.43,10,10,8,38,17,47,0.00,1,,189
2013-4-10,62,50,38,40,35,30,92,62,32,30.02,29.92,29.75,10,9,3,25,13,30,0.16,5,Rain-Thunderstorm,359
2013-4-11,77,58,38,36,30,19,85,49,13,30.00,29.87,29.71,10,10,10,23,6,31,0.00,0,,26
2013-4-12,85,66,46,43,36,32,71,44,16,29.91,29.84,29.75,10,10,10,21,9,35,0.00,0,,173
2013-4-13,82,68,54,50,38,33,51,35,18,29.87,29.78,29.68,10,10,10,23,12,31,0.00,2,,160
2013-4-14,96,77,58,55,38,21,78,43,7,29.69,29.59,29.48,10,10,10,33,15,41,0.00,0,,213
2013-4-15,94,82,70,61,44,27,61,36,10,29.68,29.61,29.56,10,10,10,23,13,29,0.00,0,,197
2013-4-16,96,83,69,64,59,51,78,51,24,29.78,29.69,29.63,10,9,6,23,11,32,0.00,0,,175
2013-4-17,98,86,73,68,63,50,74,48,21,29.78,29.62,29.46,10,8,4,33,19,46,0.00,3,,174
2013-4-18,76,61,46,68,42,21,79,49,19,30.17,29.87,29.54,10,9,2,46,16,54,0.27,3,Rain-Thunderstorm,343
2013-4-19,68,51,34,32,24,16,76,45,14,30.34,30.22,30.12,10,10,10,10,4,16,0.00,0,,70
2013-4-20,79,63,46,32,25,22,45,29,13,30.12,29.99,29.83,10,10,10,28,14,39,0.00,0,,163
2013-4-21,82,65,48,49,42,31,74,49,23,30.05,29.97,29.90,10,10,10,17,8,25,0.00,0,,148
2013-4-22,90,75,60,56,53,46,78,51,23,30.03,29.89,29.73,10,10,10,25,16,33,0.00,2,,178
2013-4-23,73,59,45,61,43,31,73,60,46,30.22,29.95,29.69,10,10,10,24,14,31,0.00,6,,24
2013-4-24,65,52,38,31,27,24,64,44,24,30.35,30.26,30.16,10,10,10,23,11,25,0.00,6,,46
2013-4-25,74,65,55,48,40,31,56,46,36,30.29,30.18,30.06,10,10,10,22,12,28,0.00,7,,119
2013-4-26,90,76,62,58,52,39,78,48,17,30.11,30.00,29.88,10,10,10,25,13,32,0.00,4,,186
2013-4-27,86,73,59,58,49,39,84,53,22,30.14,30.02,29.94,10,10,10,18,9,23,0.00,2,,60
2013-4-28,90,71,52,61,47,39,77,48,19,30.00,29.90,29.79,10,10,10,22,8,28,0.00,0,,159
2013-4-29,88,72,56,53,48,42,72,47,21,29.87,29.79,29.69,10,10,10,23,7,31,0.00,0,,187
2013-4-30,94,80,65,61,56,47,87,55,22,29.81,29.68,29.58,10,10,10,23,11,31,0.00,1,,182